Time;durP1;ratioP1;P1;durP2;ratioP2;P2;SDS_P1;SDS_P2;PMS_P1;PMS_P2;Temp;Humidity;BMP_temperature;BMP_pressure;BME280_temperature;BME280_humidity;BME280_pressure;Samples;Min_cycle;Max_cycle;Signal;HPM_P1;HPM_P2
2022/07/17 00:00:42;;;;;;;0.70;0.50;;;;;;;28.49;33.41;99438.63;5097021;28;20052;-57
2022/07/17 00:03:12;;;;;;;0.82;0.60;;;;;;;28.47;33.63;99437.50;5104667;28;20392;-66
2022/07/17 00:05:37;;;;;;;0.57;0.50;;;;;;;28.46;33.75;99442.31;5098796;28;20130;-56
2022/07/17 00:08:06;;;;;;;2.40;1.45;;;;;;;28.47;33.71;99446.72;5106770;28;20127;-58
2022/07/17 00:10:34;;;;;;;1.70;1.00;;;;;;;28.44;33.66;99439.16;5102892;28;20063;-57
2022/07/17 00:13:03;;;;;;;1.67;1.00;;;;;;;28.49;33.70;99449.91;5098756;28;20052;-57
2022/07/17 00:15:29;;;;;;;1.88;1.08;;;;;;;28.46;33.55;99456.38;5098021;28;20078;-56
2022/07/17 00:17:54;;;;;;;1.17;0.90;;;;;;;28.48;33.64;99467.22;5092225;28;20071;-66
2022/07/17 00:20:20;;;;;;;2.05;1.20;;;;;;;28.48;33.63;99461.59;5097349;28;20047;-65
2022/07/17 00:22:48;;;;;;;1.45;1.00;;;;;;;28.48;33.61;99456.75;5106531;28;20071;-66
2022/07/17 00:25:14;;;;;;;1.60;0.77;;;;;;;28.48;33.65;99462.38;5097229;28;20039;-66
2022/07/17 00:27:40;;;;;;;1.75;1.10;;;;;;;28.51;33.54;99463.56;5097260;28;20036;-66
2022/07/17 00:30:07;;;;;;;1.58;1.10;;;;;;;28.51;33.60;99461.53;5091819;28;20490;-56
2022/07/17 00:32:33;;;;;;;1.80;1.05;;;;;;;28.50;33.64;99459.97;5105166;28;20647;-65
2022/07/17 00:34:58;;;;;;;2.50;1.38;;;;;;;28.50;33.66;99465.59;5092656;28;20126;-58
2022/07/17 00:37:23;;;;;;;2.38;1.50;;;;;;;28.46;33.96;99467.66;5106215;28;20056;-66
2022/07/17 00:39:49;;;;;;;2.10;1.17;;;;;;;28.49;33.61;99458.34;5092867;28;20040;-66
2022/07/17 00:42:16;;;;;;;2.05;1.33;;;;;;;28.51;33.55;99460.75;5091803;28;20150;-58
2022/07/17 00:44:42;;;;;;;2.13;1.15;;;;;;;28.50;33.73;99462.78;5092367;28;20048;-58
2022/07/17 00:47:20;;;;;;;1.73;1.08;;;;;;;28.47;33.63;99466.41;5102608;28;20090;-58
2022/07/17 00:49:47;;;;;;;1.73;1.15;;;;;;;28.46;33.73;99466.84;5097505;28;20131;-66
2022/07/17 00:52:15;;;;;;;1.73;1.15;;;;;;;28.47;33.74;99463.59;5098792;28;20048;-57
2022/07/17 00:54:45;;;;;;;1.65;1.00;;;;;;;28.46;33.63;99464.03;5090727;28;20043;-66
2022/07/17 00:57:14;;;;;;;1.92;1.20;;;;;;;28.44;33.86;99464.47;5099338;28;20043;-66
2022/07/17 00:59:40;;;;;;;1.50;1.00;;;;;;;28.45;33.61;99466.06;5094496;28;20134;-66
2022/07/17 01:02:07;;;;;;;1.80;1.00;;;;;;;28.48;33.71;99473.63;5092619;28;20115;-58
2022/07/17 01:04:34;;;;;;;1.50;1.00;;;;;;;28.47;33.44;99477.69;5101568;28;20574;-57
2022/07/17 01:07:00;;;;;;;1.55;0.90;;;;;;;28.47;33.73;99474.06;5104172;28;20415;-58
2022/07/17 01:09:27;;;;;;;1.50;0.90;;;;;;;28.46;33.76;99476.09;5098753;28;20044;-65
2022/07/17 01:11:53;;;;;;;1.48;0.93;;;;;;;28.44;33.65;99467.28;5095617;28;20127;-66
2022/07/17 01:14:19;;;;;;;1.27;0.93;;;;;;;28.45;33.96;99470.91;5089180;28;20102;-65
2022/07/17 01:16:44;;;;;;;1.83;0.88;;;;;;;28.42;33.74;99463.28;5090238;28;20036;-57
2022/07/17 01:19:11;;;;;;;1.17;0.88;;;;;;;28.45;33.67;99473.72;5097805;28;20056;-57
2022/07/17 01:21:42;;;;;;;1.02;0.70;;;;;;;28.43;33.71;99476.94;5100069;28;20036;-57
2022/07/17 01:24:07;;;;;;;1.08;0.82;;;;;;;28.43;33.76;99470.50;5099952;28;20035;-67
2022/07/17 01:26:34;;;;;;;1.20;0.90;;;;;;;28.42;33.69;99468.91;5100098;28;20098;-58
2022/07/17 01:28:59;;;;;;;1.42;0.93;;;;;;;28.39;33.70;99470.56;5092086;28;20036;-67
2022/07/17 01:31:24;;;;;;;1.33;0.80;;;;;;;28.43;33.41;99470.50;5102307;28;20040;-59
2022/07/17 01:33:50;;;;;;;1.20;0.70;;;;;;;28.43;33.79;99476.94;5100986;28;20455;-67
2022/07/17 01:36:15;;;;;;;1.08;0.70;;;;;;;28.41;33.46;99476.56;5097300;28;20400;-67
2022/07/17 01:38:42;;;;;;;1.10;0.80;;;;;;;28.43;33.67;99464.88;5103794;28;20125;-59
2022/07/17 01:41:07;;;;;;;1.40;0.90;;;;;;;28.40;33.68;99471.38;5106595;28;20119;-67
2022/07/17 01:43:33;;;;;;;1.98;0.70;;;;;;;28.38;33.79;99474.59;5102686;28;20139;-68
2022/07/17 01:45:58;;;;;;;1.38;0.80;;;;;;;28.43;33.43;99471.31;5093875;28;20507;-66
2022/07/17 01:48:26;;;;;;;1.27;0.80;;;;;;;28.43;33.69;99481.75;5092328;28;20071;-57
2022/07/17 01:50:51;;;;;;;1.67;0.80;;;;;;;28.41;33.67;99476.56;5106172;28;20032;-65
2022/07/17 01:53:17;;;;;;;2.05;0.70;;;;;;;28.41;33.73;99490.63;5100910;28;20042;-63
2022/07/17 01:55:42;;;;;;;1.65;0.65;;;;;;;28.40;33.65;99480.59;5092932;28;20044;-66
2022/07/17 01:58:10;;;;;;;1.33;0.85;;;;;;;28.40;33.74;99489.03;5095957;28;20464;-57
2022/07/17 02:00:35;;;;;;;2.55;0.80;;;;;;;28.40;33.69;99482.63;5106624;28;20127;-66
2022/07/17 02:03:01;;;;;;;1.42;0.80;;;;;;;28.39;33.71;99487.44;5098688;28;20158;-58
2022/07/17 02:05:26;;;;;;;1.23;0.70;;;;;;;28.38;33.68;99483.06;5102887;28;20039;-66
2022/07/17 02:07:51;;;;;;;1.17;0.80;;;;;;;28.40;33.63;99491.84;5092873;28;20044;-66
2022/07/17 02:10:17;;;;;;;1.60;0.80;;;;;;;28.39;33.53;99493.06;5098817;28;20089;-66
2022/07/17 02:12:44;;;;;;;1.23;0.70;;;;;;;28.38;33.82;99487.88;5081434;28;20102;-66
2022/07/17 02:15:10;;;;;;;0.98;0.70;;;;;;;28.40;33.78;99486.22;5077129;28;20032;-57
2022/07/17 02:17:35;;;;;;;0.70;0.60;;;;;;;28.40;33.81;99480.59;5078653;28;20036;-58
2022/07/17 02:20:01;;;;;;;1.08;0.70;;;;;;;28.38;33.70;99474.59;5080531;28;20402;-58
2022/07/17 02:22:26;;;;;;;2.08;0.80;;;;;;;28.39;33.68;99472.59;5080833;28;20048;-57
2022/07/17 02:24:51;;;;;;;1.10;0.73;;;;;;;28.35;33.73;99464.19;5081630;28;20062;-58
2022/07/17 02:27:17;;;;;;;1.00;0.73;;;;;;;28.36;33.57;99471.44;5083347;28;20134;-66
2022/07/17 02:29:42;;;;;;;1.13;0.73;;;;;;;28.35;33.62;99475.44;5076685;28;20462;-66
2022/07/17 02:32:09;;;;;;;1.38;0.77;;;;;;;28.31;33.64;99469.09;5078359;28;20040;-58
2022/07/17 02:34:37;;;;;;;0.90;0.60;;;;;;;28.36;33.57;99479.88;5070002;28;20412;-58
2022/07/17 02:37:04;;;;;;;1.20;0.70;;;;;;;28.34;33.62;99476.66;5079431;28;20051;-58
2022/07/17 02:39:29;;;;;;;1.27;0.77;;;;;;;28.33;33.51;99483.53;5081166;28;20106;-66
2022/07/17 02:41:54;;;;;;;1.00;0.70;;;;;;;28.31;33.70;99483.16;5067194;28;20048;-66
2022/07/17 02:44:20;;;;;;;0.73;0.60;;;;;;;28.32;33.70;99481.13;5074687;28;20029;-66
2022/07/17 02:46:45;;;;;;;0.73;0.55;;;;;;;28.33;33.54;99479.91;5073741;28;20488;-58
2022/07/17 02:49:11;;;;;;;0.90;0.68;;;;;;;28.35;33.57;99485.91;5081016;28;20044;-58
2022/07/17 02:51:36;;;;;;;0.63;0.57;;;;;;;28.34;33.58;99484.31;5070234;28;20068;-66
2022/07/17 02:54:02;;;;;;;0.55;0.50;;;;;;;28.35;33.79;99495.13;5069825;28;20048;-58
2022/07/17 02:56:27;;;;;;;0.98;0.70;;;;;;;28.35;33.71;99483.09;5069850;28;20033;-58
2022/07/17 02:58:52;;;;;;;1.15;0.70;;;;;;;28.32;33.63;99481.13;5072416;28;20052;-58
2022/07/17 03:01:18;;;;;;;0.98;0.60;;;;;;;28.30;33.67;99487.19;5070619;28;20036;-58
2022/07/17 03:03:46;;;;;;;0.98;0.70;;;;;;;28.32;33.57;99484.75;5067556;28;20044;-58
2022/07/17 03:06:11;;;;;;;0.75;0.60;;;;;;;28.33;33.80;99485.53;5069960;28;20451;-58
2022/07/17 03:08:37;;;;;;;0.93;0.70;;;;;;;28.27;33.92;99482.38;5074149;28;20044;-58
2022/07/17 03:11:02;;;;;;;0.65;0.50;;;;;;;28.28;33.73;99492.41;5076686;28;20128;-58
2022/07/17 03:13:27;;;;;;;0.80;0.68;;;;;;;28.26;34.01;99477.97;5069415;28;20080;-66
2022/07/17 03:15:53;;;;;;;0.60;0.50;;;;;;;28.29;33.87;99479.94;5082370;28;20400;-58
2022/07/17 03:18:19;;;;;;;0.93;0.60;;;;;;;28.32;33.83;99481.94;5077019;28;20479;-58
2022/07/17 03:20:45;;;;;;;0.65;0.57;;;;;;;28.32;33.73;99479.13;5079780;28;20575;-66
2022/07/17 03:23:11;;;;;;;0.85;0.50;;;;;;;28.35;33.87;99492.31;5075105;28;20131;-66
2022/07/17 03:25:36;;;;;;;1.38;0.93;;;;;;;28.33;33.64;99489.16;5079785;28;20411;-66
2022/07/17 03:28:02;;;;;;;1.85;0.80;;;;;;;28.31;33.87;99479.56;5077766;28;20036;-58
2022/07/17 03:30:28;;;;;;;1.38;0.63;;;;;;;28.26;33.73;99472.34;5075659;28;20511;-58
2022/07/17 03:32:53;;;;;;;0.95;0.60;;;;;;;28.32;33.78;99496.00;5084415;28;20553;-66
2022/07/17 03:35:19;;;;;;;0.82;0.65;;;;;;;28.30;33.88;99489.19;5083213;28;20048;-66
2022/07/17 03:37:44;;;;;;;1.13;0.70;;;;;;;28.27;33.99;99490.81;5081729;28;20039;-67
2022/07/17 03:40:10;;;;;;;0.80;0.55;;;;;;;28.33;33.82;99505.22;5085098;28;20419;-67
2022/07/17 03:42:36;;;;;;;0.68;0.50;;;;;;;28.31;33.93;99497.22;5084323;28;20048;-58
2022/07/17 03:45:01;;;;;;;0.95;0.60;;;;;;;28.30;33.83;99494.81;5081064;28;20032;-57
2022/07/17 03:47:27;;;;;;;0.73;0.60;;;;;;;28.24;33.89;99500.91;5072611;28;20041;-58
2022/07/17 03:49:52;;;;;;;0.77;0.50;;;;;;;28.23;34.07;99495.72;5091154;28;20139;-58
2022/07/17 03:52:18;;;;;;;0.70;0.60;;;;;;;28.27;33.86;99504.09;5083985;28;20043;-65
2022/07/17 03:54:43;;;;;;;1.70;0.68;;;;;;;28.23;33.98;99498.53;5071169;28;20097;-65
2022/07/17 03:57:08;;;;;;;0.95;0.60;;;;;;;28.24;34.13;99511.38;5087333;28;20523;-57
2022/07/17 03:59:34;;;;;;;0.82;0.68;;;;;;;28.27;33.97;99507.69;5078537;28;20056;-67
2022/07/17 04:01:59;;;;;;;1.02;0.70;;;;;;;28.20;34.02;99502.97;5076536;28;20104;-66
2022/07/17 04:04:25;;;;;;;0.65;0.60;;;;;;;28.25;34.03;99513.75;5081342;28;20131;-66
2022/07/17 04:06:50;;;;;;;0.63;0.60;;;;;;;28.27;34.06;99513.31;5081042;28;20480;-58
2022/07/17 04:09:15;;;;;;;0.73;0.60;;;;;;;28.24;34.27;99508.53;5076850;28;20040;-58
2022/07/17 04:11:41;;;;;;;0.73;0.60;;;;;;;28.22;34.07;99508.97;5076245;28;20044;-58
2022/07/17 04:14:09;;;;;;;1.15;0.70;;;;;;;28.24;34.07;99522.63;5086163;28;20491;-58
2022/07/17 04:16:35;;;;;;;1.25;0.70;;;;;;;28.23;33.90;99521.81;5080813;28;20040;-66
2022/07/17 04:19:00;;;;;;;0.77;0.60;;;;;;;28.25;34.07;99519.38;5083753;28;20354;-66
2022/07/17 04:21:26;;;;;;;0.73;0.47;;;;;;;28.25;34.05;99525.00;5074054;28;20119;-58
2022/07/17 04:23:51;;;;;;;0.65;0.50;;;;;;;28.22;34.08;99522.25;5078202;28;20502;-67
2022/07/17 04:26:17;;;;;;;0.70;0.60;;;;;;;28.21;33.98;99527.06;5074777;28;20135;-57
2022/07/17 04:28:43;;;;;;;1.08;0.77;;;;;;;28.20;33.97;99527.47;5074186;28;20056;-66
2022/07/17 04:31:08;;;;;;;2.20;0.57;;;;;;;28.21;33.95;99526.25;5084585;28;20058;-66
2022/07/17 04:33:34;;;;;;;1.05;0.70;;;;;;;28.23;34.01;99530.25;5079835;28;20036;-58
2022/07/17 04:35:59;;;;;;;0.77;0.60;;;;;;;28.23;34.05;99530.25;5072071;28;20385;-66
2022/07/17 04:38:25;;;;;;;0.90;0.70;;;;;;;28.22;34.09;99534.28;5080077;28;20467;-66
2022/07/17 04:40:50;;;;;;;1.27;0.60;;;;;;;28.23;34.13;99529.47;5068745;28;20040;-66
2022/07/17 04:43:15;;;;;;;0.80;0.70;;;;;;;28.21;34.17;99532.69;5077002;28;20043;-66
2022/07/17 04:45:41;;;;;;;1.10;0.80;;;;;;;28.22;34.08;99527.88;5083087;28;20039;-66
2022/07/17 04:48:06;;;;;;;0.80;0.57;;;;;;;28.24;34.05;99531.84;5086342;28;20033;-66
2022/07/17 04:50:33;;;;;;;1.00;0.73;;;;;;;28.25;34.22;99538.25;5077164;28;20059;-65
2022/07/17 04:53:00;;;;;;;0.85;0.65;;;;;;;28.22;34.20;99534.28;5082633;28;20040;-66
2022/07/17 04:55:25;;;;;;;0.90;0.52;;;;;;;28.24;34.23;99543.09;5074510;28;20052;-66
2022/07/17 04:57:51;;;;;;;0.90;0.60;;;;;;;28.22;34.33;99539.13;5081873;28;20121;-66
2022/07/17 05:00:16;;;;;;;0.98;0.70;;;;;;;28.22;34.45;99536.31;5079734;28;20473;-66
2022/07/17 05:02:42;;;;;;;0.82;0.70;;;;;;;28.23;34.60;99535.09;5076624;28;20056;-58
2022/07/17 05:05:08;;;;;;;0.75;0.60;;;;;;;28.20;34.50;99535.91;5073756;28;20455;-58
2022/07/17 05:07:34;;;;;;;0.90;0.70;;;;;;;28.22;34.64;99539.13;5081597;28;20049;-58
2022/07/17 05:09:59;;;;;;;1.10;0.75;;;;;;;28.23;34.60;99538.69;5078284;28;20047;-57
2022/07/17 05:12:25;;;;;;;0.80;0.65;;;;;;;28.20;34.51;99542.34;5071643;28;20044;-58
2022/07/17 05:14:50;;;;;;;0.98;0.70;;;;;;;28.17;34.75;99534.75;5084259;28;20660;-65
2022/07/17 05:17:16;;;;;;;0.60;0.57;;;;;;;28.24;35.05;99542.31;5075873;28;20043;-66
2022/07/17 05:19:41;;;;;;;1.25;0.73;;;;;;;28.25;34.83;99544.69;5074659;28;20041;-56
2022/07/17 05:22:07;;;;;;;0.80;0.60;;;;;;;28.22;35.11;99545.53;5075700;28;20110;-58
2022/07/17 05:24:33;;;;;;;1.08;0.68;;;;;;;28.25;34.99;99546.72;5054021;28;20512;-58
2022/07/17 05:27:02;;;;;;;0.85;0.52;;;;;;;28.25;35.02;99552.34;5077342;28;20036;-58
2022/07/17 05:29:28;;;;;;;1.33;0.80;;;;;;;28.28;34.89;99550.69;5056099;28;20396;-58
2022/07/17 05:31:53;;;;;;;0.85;0.60;;;;;;;28.20;35.02;99542.34;5078638;28;20508;-58
2022/07/17 05:34:18;;;;;;;0.75;0.55;;;;;;;28.26;35.28;99551.09;5074091;28;20500;-58
2022/07/17 05:36:46;;;;;;;0.65;0.55;;;;;;;28.27;35.34;99552.69;5085177;28;20546;-58
2022/07/17 05:39:13;;;;;;;0.55;0.50;;;;;;;28.30;35.12;99557.53;5073842;28;20040;-58
2022/07/17 05:41:40;;;;;;;0.90;0.65;;;;;;;28.28;35.25;99557.09;5081214;28;20051;-66
2022/07/17 05:44:05;;;;;;;0.80;0.60;;;;;;;28.29;35.45;99563.53;5073511;28;20051;-67
2022/07/17 05:46:31;;;;;;;0.75;0.60;;;;;;;28.31;35.32;99555.50;5079208;28;20060;-66
2022/07/17 05:48:58;;;;;;;0.90;0.70;;;;;;;28.30;35.18;99565.13;5079636;28;20044;-58
2022/07/17 05:51:23;;;;;;;1.65;0.70;;;;;;;28.31;35.33;99561.94;5078591;28;20123;-66
2022/07/17 05:53:49;;;;;;;1.42;0.80;;;;;;;28.29;35.34;99571.97;5084782;28;20134;-58
2022/07/17 05:56:18;;;;;;;0.80;0.65;;;;;;;28.35;35.27;99571.09;5077666;28;20036;-57
2022/07/17 05:58:46;;;;;;;1.00;0.70;;;;;;;28.34;35.23;99569.50;5083214;28;20460;-58
2022/07/17 06:01:12;;;;;;;0.73;0.60;;;;;;;28.33;35.27;99573.53;5074260;28;20052;-66
2022/07/17 06:03:40;;;;;;;1.10;0.70;;;;;;;28.32;35.40;99571.97;5059887;28;20049;-58
2022/07/17 06:06:06;;;;;;;1.08;0.80;;;;;;;28.32;35.42;99582.41;5077223;28;20044;-58
2022/07/17 06:08:32;;;;;;;1.10;0.80;;;;;;;28.34;35.20;99569.50;5077798;28;20978;-66
2022/07/17 06:10:57;;;;;;;0.90;0.68;;;;;;;28.33;35.24;99572.75;5075181;28;20488;-65
2022/07/17 06:13:22;;;;;;;2.05;0.80;;;;;;;28.33;35.28;99567.91;5081304;28;20048;-58
2022/07/17 06:15:48;;;;;;;1.10;0.70;;;;;;;28.35;35.11;99567.50;5076281;28;20488;-58
2022/07/17 06:18:13;;;;;;;0.90;0.65;;;;;;;28.33;35.18;99565.09;5085046;28;20137;-66
2022/07/17 06:20:39;;;;;;;1.17;0.70;;;;;;;28.36;35.15;99572.72;5073043;28;20044;-66
2022/07/17 06:23:05;;;;;;;0.98;0.73;;;;;;;28.37;35.19;99573.50;5080003;28;20037;-58
2022/07/17 06:25:30;;;;;;;1.08;0.70;;;;;;;28.35;35.13;99573.91;5074406;28;20067;-58
2022/07/17 06:27:56;;;;;;;0.80;0.50;;;;;;;28.36;35.21;99571.88;5086029;28;20040;-58
2022/07/17 06:30:21;;;;;;;1.13;0.80;;;;;;;28.35;35.03;99571.09;5082736;28;20097;-58
2022/07/17 06:32:46;;;;;;;1.10;0.73;;;;;;;28.36;35.39;99574.72;5077866;28;20036;-58
2022/07/17 06:35:16;;;;;;;1.02;0.70;;;;;;;28.36;35.14;99577.53;5072680;28;20032;-57
2022/07/17 06:37:42;;;;;;;0.85;0.70;;;;;;;28.39;35.26;99574.69;5078043;28;20048;-66
2022/07/17 06:40:08;;;;;;;1.30;0.80;;;;;;;28.40;35.15;99572.66;5078683;28;20056;-57
2022/07/17 06:42:35;;;;;;;0.95;0.70;;;;;;;28.40;35.10;99581.09;5078140;28;20028;-58
2022/07/17 06:45:01;;;;;;;1.00;0.70;;;;;;;28.39;35.07;99582.31;5082654;28;20109;-57
2022/07/17 06:47:26;;;;;;;1.10;0.80;;;;;;;28.41;35.31;99580.66;5073205;28;20408;-57
2022/07/17 06:49:52;;;;;;;0.65;0.52;;;;;;;28.45;35.26;99575.00;5081419;28;20047;-58
2022/07/17 06:52:21;;;;;;;1.05;0.80;;;;;;;28.43;35.28;99581.06;5071206;28;20071;-58
2022/07/17 06:54:50;;;;;;;0.90;0.70;;;;;;;28.48;35.20;99580.56;5084041;28;20462;-58
2022/07/17 06:57:16;;;;;;;1.00;0.70;;;;;;;28.43;35.43;99583.88;5078829;28;20044;-57
2022/07/17 06:59:41;;;;;;;1.27;0.88;;;;;;;28.43;35.27;99583.88;5075336;28;20052;-58
2022/07/17 07:02:07;;;;;;;0.85;0.70;;;;;;;28.42;34.98;99576.63;5078408;28;20041;-58
2022/07/17 07:04:32;;;;;;;1.35;0.88;;;;;;;28.45;35.13;99575.00;5075561;28;20064;-66
2022/07/17 07:06:57;;;;;;;0.95;0.68;;;;;;;28.49;35.01;99581.34;5080790;28;20366;-67
2022/07/17 07:09:23;;;;;;;0.88;0.60;;;;;;;28.47;34.90;99573.34;5072939;28;20537;-66
2022/07/17 07:11:49;;;;;;;1.00;0.75;;;;;;;28.46;35.11;99574.56;5073483;28;20084;-58
2022/07/17 07:14:14;;;;;;;1.15;0.80;;;;;;;28.45;34.80;99572.97;5080228;28;20040;-57
2022/07/17 07:16:40;;;;;;;1.08;0.70;;;;;;;28.47;34.93;99581.78;5080940;28;20132;-58
2022/07/17 07:19:05;;;;;;;0.88;0.68;;;;;;;28.44;34.89;99577.03;5078461;28;20048;-67
2022/07/17 07:21:31;;;;;;;0.73;0.65;;;;;;;28.48;34.71;99585.41;5074789;28;20139;-57
2022/07/17 07:23:57;;;;;;;1.00;0.70;;;;;;;28.48;34.89;99580.56;5077952;28;20043;-59
2022/07/17 07:26:23;;;;;;;1.33;0.80;;;;;;;28.47;34.70;99578.97;5069666;28;20029;-58
2022/07/17 07:28:48;;;;;;;1.35;0.85;;;;;;;28.48;34.78;99585.41;5068323;28;20083;-58
2022/07/17 07:31:14;;;;;;;1.38;0.85;;;;;;;28.49;34.74;99576.53;5071935;28;20064;-67
2022/07/17 07:33:39;;;;;;;0.85;0.65;;;;;;;28.54;34.47;99578.09;5070803;28;20504;-59
2022/07/17 07:36:05;;;;;;;0.70;0.63;;;;;;;28.51;34.69;99576.13;5066752;28;20075;-67
2022/07/17 07:38:32;;;;;;;0.98;0.70;;;;;;;28.52;34.65;99580.53;5069211;28;20036;-59
2022/07/17 07:40:57;;;;;;;1.00;0.70;;;;;;;28.53;34.44;99573.69;5080494;28;20044;-58
2022/07/17 07:43:23;;;;;;;0.93;0.70;;;;;;;28.50;34.63;99569.69;5077203;28;20306;-58
2022/07/17 07:45:49;;;;;;;0.93;0.70;;;;;;;28.52;34.59;99572.88;5076548;28;20404;-58
2022/07/17 07:48:15;;;;;;;0.75;0.65;;;;;;;28.51;34.64;99578.94;5069212;28;20049;-67
2022/07/17 07:50:40;;;;;;;1.35;0.90;;;;;;;28.50;34.72;99578.16;5067382;28;20071;-67
2022/07/17 07:53:06;;;;;;;0.85;0.63;;;;;;;28.48;34.75;99562.88;5071072;28;20076;-58
2022/07/17 07:55:31;;;;;;;1.17;0.80;;;;;;;28.52;34.68;99577.72;5081936;28;20080;-58
2022/07/17 07:58:11;;;;;;;1.10;0.80;;;;;;;28.54;35.17;99577.28;5078782;28;20403;-66
2022/07/17 08:00:39;;;;;;;1.15;0.80;;;;;;;28.54;34.83;99571.66;5068024;28;20060;-58
2022/07/17 08:03:04;;;;;;;0.68;0.47;;;;;;;28.54;34.78;99571.66;5079544;28;20616;-58
2022/07/17 08:05:31;;;;;;;1.25;0.75;;;;;;;28.54;34.70;99566.03;5083804;28;20555;-68
2022/07/17 08:07:56;;;;;;;0.90;0.60;;;;;;;28.54;34.67;99566.03;5082778;28;20090;-67
2022/07/17 08:10:22;;;;;;;1.25;0.80;;;;;;;28.51;34.63;99568.47;5086465;28;20041;-58
2022/07/17 08:12:48;;;;;;;0.77;0.60;;;;;;;28.53;34.65;99573.69;5076942;28;20041;-58
2022/07/17 08:15:19;;;;;;;1.20;0.70;;;;;;;28.53;34.77;99565.22;5072789;28;20103;-58
2022/07/17 08:17:45;;;;;;;0.98;0.68;;;;;;;28.57;34.65;99570.78;5079235;28;20565;-58
2022/07/17 08:20:12;;;;;;;0.77;0.60;;;;;;;28.56;34.46;99569.22;5079052;28;20083;-58
2022/07/17 08:22:37;;;;;;;1.13;0.73;;;;;;;28.59;34.73;99568.38;5071773;28;20139;-67
2022/07/17 08:25:05;;;;;;;1.00;0.80;;;;;;;28.58;34.66;99567.59;5071514;28;20047;-58
2022/07/17 08:27:41;;;;;;;1.05;0.68;;;;;;;28.62;34.54;99559.06;5072408;28;20067;-67
2022/07/17 08:30:08;;;;;;;1.10;0.80;;;;;;;28.62;34.59;99570.31;5069961;28;20415;-67
2022/07/17 08:32:35;;;;;;;0.70;0.60;;;;;;;28.63;34.57;99566.28;5086835;28;20105;-67
2022/07/17 08:35:00;;;;;;;1.40;0.80;;;;;;;28.63;34.61;99560.66;5075476;28;20045;-67
2022/07/17 08:37:26;;;;;;;1.08;0.75;;;;;;;28.65;34.65;99563.88;5078908;28;20040;-67
2022/07/17 08:39:52;;;;;;;1.02;0.73;;;;;;;28.63;34.70;99557.84;5082352;28;20035;-58
2022/07/17 08:42:17;;;;;;;1.00;0.77;;;;;;;28.64;34.38;99559.44;5072830;28;20109;-58
2022/07/17 08:44:44;;;;;;;1.17;0.80;;;;;;;28.63;34.77;99561.44;5084653;28;20510;-67
2022/07/17 08:47:11;;;;;;;1.23;0.70;;;;;;;28.66;34.49;99560.63;5076570;28;20043;-58
2022/07/17 08:49:43;;;;;;;0.75;0.60;;;;;;;28.68;34.68;99568.63;5072075;28;20053;-67
2022/07/17 08:52:10;;;;;;;0.88;0.60;;;;;;;28.69;34.50;99565.38;5077733;28;20040;-67
2022/07/17 08:54:36;;;;;;;1.30;0.90;;;;;;;28.69;34.40;99573.81;5078985;28;20044;-58
2022/07/17 08:57:02;;;;;;;0.70;0.60;;;;;;;28.68;34.39;99571.44;5084060;28;20052;-58
2022/07/17 08:59:27;;;;;;;1.15;0.73;;;;;;;28.69;34.50;99573.03;5079449;28;20534;-58
2022/07/17 09:01:53;;;;;;;0.75;0.60;;;;;;;28.73;34.60;99573.78;5071990;28;20044;-58
2022/07/17 09:04:18;;;;;;;0.73;0.60;;;;;;;28.72;34.44;99567.38;5078337;28;20052;-67
2022/07/17 09:06:44;;;;;;;0.93;0.70;;;;;;;28.74;34.35;99570.53;5074827;28;20083;-67
2022/07/17 09:09:11;;;;;;;1.02;0.70;;;;;;;28.75;34.42;99568.53;5080547;28;20044;-66
2022/07/17 09:11:47;;;;;;;0.70;0.63;;;;;;;28.76;34.30;99564.47;5075928;28;20135;-58
2022/07/17 09:14:12;;;;;;;0.70;0.63;;;;;;;28.77;34.34;99571.69;5082545;28;20045;-58
2022/07/17 09:16:55;;;;;;;1.08;0.60;;;;;;;28.77;34.16;99568.88;5088068;28;20713;-58
2022/07/17 09:19:47;;;;;;;0.93;0.70;;;;;;;28.79;34.46;99572.06;5079056;28;20144;-58
2022/07/17 09:22:18;;;;;;;1.30;0.80;;;;;;;28.83;34.21;99572.81;5073206;28;20040;-67
2022/07/17 09:24:45;;;;;;;0.98;0.70;;;;;;;28.82;34.11;99565.59;5079304;28;20139;-58
2022/07/17 09:27:13;;;;;;;1.33;0.77;;;;;;;28.82;34.18;99565.59;5081753;28;20044;-58
2022/07/17 09:30:01;;;;;;;0.80;0.60;;;;;;;28.82;34.29;99568.41;5085833;28;20047;-58
2022/07/17 09:32:31;;;;;;;0.90;0.60;;;;;;;28.82;34.41;99565.59;5073855;28;20123;-58
2022/07/17 09:34:59;;;;;;;1.17;0.80;;;;;;;28.83;34.21;99564.38;5083081;28;20044;-67
2022/07/17 09:37:28;;;;;;;1.10;0.70;;;;;;;28.85;34.33;99555.50;5076834;28;20508;-58
2022/07/17 09:39:55;;;;;;;0.70;0.60;;;;;;;28.83;34.13;99561.56;5079479;28;20319;-58
2022/07/17 09:42:33;;;;;;;0.80;0.70;;;;;;;28.85;34.24;99556.28;5082701;28;20059;-58
2022/07/17 09:45:04;;;;;;;1.02;0.80;;;;;;;28.85;34.17;99559.09;5080370;28;20063;-58
2022/07/17 09:47:32;;;;;;;0.70;0.60;;;;;;;28.85;34.16;99556.28;5081180;28;20040;-59
2022/07/17 09:50:00;;;;;;;0.93;0.70;;;;;;;28.87;34.16;99553.84;5080894;28;20054;-58
2022/07/17 09:52:32;;;;;;;0.88;0.70;;;;;;;28.89;34.15;99561.88;5078231;28;20542;-67
2022/07/17 09:54:59;;;;;;;0.73;0.70;;;;;;;28.93;34.06;99557.00;5073398;28;20044;-67
2022/07/17 09:57:27;;;;;;;0.90;0.70;;;;;;;28.93;33.98;99557.78;5073734;28;20048;-67
2022/07/17 10:00:11;;;;;;;1.10;0.70;;;;;;;28.90;34.20;99546.56;5072119;28;20048;-58
2022/07/17 10:02:40;;;;;;;1.00;0.70;;;;;;;28.93;33.92;99542.91;5078231;28;20048;-67
2022/07/17 10:05:11;;;;;;;1.00;0.70;;;;;;;28.94;33.97;99552.97;5075245;28;20050;-66
2022/07/17 10:07:40;;;;;;;0.82;0.70;;;;;;;28.94;34.23;99555.78;5079322;28;20074;-67
2022/07/17 10:10:07;;;;;;;0.80;0.60;;;;;;;28.93;34.10;99548.53;5072455;28;20066;-59
2022/07/17 10:12:33;;;;;;;0.95;0.70;;;;;;;28.94;34.12;99544.53;5085963;28;20143;-67
2022/07/17 10:14:59;;;;;;;0.80;0.60;;;;;;;28.93;34.10;99542.91;5099160;28;20048;-67
2022/07/17 10:17:24;;;;;;;1.13;0.80;;;;;;;28.93;34.19;99537.28;5093003;28;20617;-66
2022/07/17 10:19:54;;;;;;;1.25;0.73;;;;;;;28.96;34.01;99542.88;5093825;28;20206;-58
2022/07/17 10:22:19;;;;;;;0.90;0.70;;;;;;;28.95;34.02;99541.28;5096077;28;20032;-58
2022/07/17 10:24:55;;;;;;;0.80;0.70;;;;;;;28.96;34.10;99540.06;5099260;28;20046;-58
2022/07/17 10:27:31;;;;;;;3.80;0.90;;;;;;;28.99;34.09;99541.22;5100521;28;20407;-58
2022/07/17 10:30:07;;;;;;;1.00;0.80;;;;;;;29.00;34.12;99535.13;5101780;28;20441;-58
2022/07/17 10:32:33;;;;;;;1.00;0.60;;;;;;;28.99;33.94;99536.38;5096445;28;20066;-58
2022/07/17 10:35:08;;;;;;;1.20;0.88;;;;;;;29.01;34.01;99536.75;5098926;28;20045;-58
2022/07/17 10:37:36;;;;;;;1.20;0.80;;;;;;;29.00;34.17;99532.31;5104070;28;20044;-59
2022/07/17 10:40:14;;;;;;;1.20;0.70;;;;;;;29.02;34.19;99524.25;5099145;28;20062;-58
2022/07/17 10:42:41;;;;;;;1.25;0.80;;;;;;;29.03;34.23;99525.84;5099787;28;20055;-58
2022/07/17 10:45:09;;;;;;;1.45;0.93;;;;;;;29.01;34.37;99525.50;5101552;28;20054;-58
2022/07/17 10:47:46;;;;;;;1.45;0.90;;;;;;;28.97;34.10;99521.13;5106317;28;20039;-58
2022/07/17 10:50:16;;;;;;;1.05;0.77;;;;;;;29.01;34.21;99521.88;5094268;28;20027;-58
2022/07/17 10:52:41;;;;;;;0.85;0.60;;;;;;;29.01;34.39;99522.69;5102934;28;20050;-66
2022/07/17 10:55:19;;;;;;;1.15;0.80;;;;;;;29.01;34.40;99517.03;5101646;28;20114;-67
2022/07/17 10:57:45;;;;;;;1.10;0.70;;;;;;;29.03;34.12;99513.78;5094057;28;20047;-58
2022/07/17 11:00:11;;;;;;;0.98;0.70;;;;;;;29.05;34.15;99508.50;5096576;28;20122;-67
2022/07/17 11:02:36;;;;;;;0.77;0.57;;;;;;;29.08;34.09;99509.66;5094202;28;20106;-58
2022/07/17 11:05:07;;;;;;;1.35;0.82;;;;;;;29.07;34.32;99503.25;5100099;28;20719;-66
2022/07/17 11:07:33;;;;;;;0.88;0.70;;;;;;;29.06;34.17;99502.44;5105339;28;20479;-67
2022/07/17 11:10:00;;;;;;;1.42;0.80;;;;;;;29.10;34.10;99495.97;5096945;28;20039;-58
2022/07/17 11:12:35;;;;;;;1.15;0.77;;;;;;;29.04;34.14;99488.00;5099883;28;20352;-58
2022/07/17 11:15:04;;;;;;;1.10;0.80;;;;;;;29.07;33.95;99491.97;5101127;28;20052;-60
2022/07/17 11:17:30;;;;;;;0.93;0.80;;;;;;;29.09;33.96;99486.72;5102047;28;20474;-57
2022/07/17 11:19:59;;;;;;;1.08;0.80;;;;;;;29.10;34.21;99488.31;5094474;28;20567;-57
2022/07/17 11:22:26;;;;;;;1.08;0.70;;;;;;;29.11;33.92;99486.28;5094221;28;20080;-57
2022/07/17 11:24:52;;;;;;;1.45;0.90;;;;;;;29.09;34.39;99477.47;5100716;28;20067;-65
2022/07/17 11:27:20;;;;;;;1.25;0.75;;;;;;;29.12;34.31;99480.22;5102211;28;20069;-65
2022/07/17 11:29:47;;;;;;;0.95;0.70;;;;;;;29.12;34.39;99479.44;5095542;28;20036;-57
2022/07/17 11:32:13;;;;;;;1.20;0.80;;;;;;;29.13;34.26;99481.00;5100802;28;20047;-57